Time;durP1;ratioP1;P1;durP2;ratioP2;P2;SDS_P1;SDS_P2;PMS_P1;PMS_P2;Temp;Humidity;BMP_temperature;BMP_pressure;BME280_temperature;BME280_humidity;BME280_pressure;Samples;Min_cycle;Max_cycle;Signal;HPM_P1;HPM_P2
2023/05/02 00:01:30;;;;;;;;;;;;;;;6.96;46.19;97632.63;6298477;28;20313;-75
2023/05/02 00:04:33;;;;;;;;;;;;;;;6.91;46.25;97624.13;6298542;28;20374;-75
2023/05/02 00:07:37;;;;;;;;;;;;;;;6.86;46.30;97640.00;6298633;28;19920;-74
2023/05/02 00:10:38;;;;;;;;;;;;;;;6.82;46.15;97637.53;6297295;28;20372;-74
2023/05/02 00:13:39;;;;;;;;;;;;;;;6.77;46.82;97629.03;6294859;28;20007;-75
2023/05/02 00:16:41;;;;;;;;;;;;;;;6.72;46.62;97637.88;6279827;28;19960;-75
2023/05/02 00:19:44;;;;;;;;;;;;;;;6.70;46.76;97634.47;6297444;28;19920;-75
2023/05/02 00:22:48;;;;;;;;;;;;;;;6.69;46.82;97637.16;6298108;28;19920;-75
2023/05/02 00:25:49;;;;;;;;;;;;;;;6.66;47.11;97638.13;6297859;28;19927;-75
2023/05/02 00:28:53;;;;;;;;;;;;;;;6.63;46.98;97627.78;6297854;28;19920;-74
2023/05/02 00:31:54;;;;;;;;;;;;;;;6.63;47.25;97633.00;6297160;28;19920;-74
2023/05/02 00:34:56;;;;;;;;;;;;;;;6.65;47.29;97636.44;6297731;28;19994;-74
2023/05/02 00:37:59;;;;;;;;;;;;;;;6.64;48.34;97633.84;6297770;28;20019;-74
2023/05/02 00:41:00;;;;;;;;;;;;;;;6.67;47.28;97650.28;6279831;28;19978;-74
2023/05/02 00:44:03;;;;;;;;;;;;;;;6.71;46.80;97635.34;6297681;28;20293;-74
2023/05/02 00:47:07;;;;;;;;;;;;;;;6.72;47.12;97637.88;6297745;28;19924;-74
2023/05/02 00:50:10;;;;;;;;;;;;;;;6.73;47.29;97638.72;6297648;28;20015;-74
2023/05/02 00:53:14;;;;;;;;;;;;;;;6.72;46.92;97637.88;6297245;28;19920;-74
2023/05/02 00:56:15;;;;;;;;;;;;;;;6.75;47.38;97640.38;6296334;28;19939;-75
2023/05/02 00:59:17;;;;;;;;;;;;;;;6.79;47.17;97632.41;6296072;28;19985;-75
2023/05/02 01:02:21;;;;;;;;;;;;;;;6.84;46.13;97633.09;6296466;28;20011;-75
2023/05/02 01:05:26;;;;;;;;;;;;;;;6.89;47.20;97634.63;6297267;28;19920;-74
2023/05/02 01:08:38;;;;;;;;;;;;;;;6.93;47.09;97636.22;6296094;28;19924;-75
2023/05/02 01:11:58;;;;;;;;;;;;;;;6.98;46.82;97633.44;6296555;28;19920;-74
2023/05/02 01:15:02;;;;;;;;;;;;;;;7.04;46.55;97627.97;6295646;28;19920;-74
2023/05/02 01:18:10;;;;;;;;;;;;;;;7.13;47.79;97619.78;6279295;28;20393;-74
2023/05/02 01:21:16;;;;;;;;;;;;;;;7.23;46.54;97628.09;6296086;28;19924;-75
2023/05/02 01:24:29;;;;;;;;;;;;;;;7.30;47.33;97623.47;6296761;28;19920;-74
2023/05/02 01:27:46;;;;;;;;;;;;;;;7.43;46.63;97624.69;6296155;28;20408;-74
2023/05/02 01:30:49;;;;;;;;;;;;;;;7.49;46.72;97634.91;6295540;28;19927;-76
2023/05/02 01:33:52;;;;;;;;;;;;;;;7.57;46.53;97632.84;6295744;28;20305;-75
2023/05/02 01:36:56;;;;;;;;;;;;;;;7.65;46.55;97640.41;6296132;28;19927;-75
2023/05/02 01:40:01;;;;;;;;;;;;;;;7.75;46.27;97643.47;6296141;28;19920;-75
2023/05/02 01:43:04;;;;;;;;;;;;;;;7.81;46.48;97646.72;6295342;28;19925;-75
2023/05/02 01:46:09;;;;;;;;;;;;;;;7.89;45.84;97649.00;6295523;28;20058;-74
2023/05/02 01:49:10;;;;;;;;;;;;;;;7.97;46.02;97652.16;6295114;28;19927;-75
2023/05/02 01:52:14;;;;;;;;;;;;;;;8.09;45.85;97656.88;6295840;28;19921;-76
2023/05/02 01:55:17;;;;;;;;;;;;;;;8.19;45.94;97656.50;6295180;28;19920;-75
2023/05/02 01:58:23;;;;;;;;;;;;;;;8.27;45.26;97664.88;6295455;28;20418;-74
2023/05/02 02:01:29;;;;;;;;;;;;;;;8.36;45.72;97663.63;6295510;28;19920;-75
2023/05/02 02:04:36;;;;;;;;;;;;;;;8.42;45.54;97664.25;6295923;28;19921;-75
2023/05/02 02:07:37;;;;;;;;;;;;;;;8.57;45.67;97664.50;6295723;28;20298;-74
2023/05/02 02:10:42;;;;;;;;;;;;;;;8.67;45.32;97673.66;6294571;28;19920;-74
2023/05/02 02:13:47;;;;;;;;;;;;;;;8.78;44.91;97666.16;6294421;28;20301;-75
2023/05/02 02:16:50;;;;;;;;;;;;;;;8.94;45.38;97671.56;6294785;28;19920;-76
2023/05/02 02:19:56;;;;;;;;;;;;;;;9.08;45.19;97669.16;6295531;28;20175;-75
2023/05/02 02:22:59;;;;;;;;;;;;;;;9.23;44.98;97675.50;6294477;28;19920;-75
2023/05/02 02:26:04;;;;;;;;;;;;;;;9.37;44.63;97680.94;6295333;28;19920;-75
2023/05/02 02:29:08;;;;;;;;;;;;;;;9.53;44.51;97681.06;6294342;28;19928;-75
2023/05/02 02:32:12;;;;;;;;;;;;;;;9.70;43.94;97680.25;6294375;28;19924;-76
2023/05/02 02:35:13;;;;;;;;;;;;;;;9.84;43.59;97675.16;6294599;28;19932;-74
2023/05/02 02:38:23;;;;;;;;;;;;;;;9.99;43.26;97678.84;6276246;28;21165;-74
2023/05/02 02:41:31;;;;;;;;;;;;;;;10.14;43.02;97673.75;6294530;28;19920;-75
2023/05/02 02:44:50;;;;;;;;;;;;;;;10.28;42.43;97680.03;6294463;28;20007;-76
2023/05/02 02:48:12;;;;;;;;;;;;;;;10.42;42.34;97676.69;6294131;28;19924;-75
2023/05/02 02:51:27;;;;;;;;;;;;;;;10.59;41.83;97673.19;6254793;28;19966;-74
2023/05/02 02:54:59;;;;;;;;;;;;;;;10.72;41.46;97676.03;6294810;28;20015;-75
2023/05/02 02:58:11;;;;;;;;;;;;;;;10.84;41.21;97679.78;6278382;28;19920;-75
2023/05/02 03:01:18;;;;;;;;;;;;;;;10.96;40.75;97677.34;6293686;28;19935;-75
2023/05/02 03:04:25;;;;;;;;;;;;;;;11.06;40.77;97672.44;6294243;28;19943;-74
2023/05/02 03:07:28;;;;;;;;;;;;;;;11.26;40.37;97683.69;6294026;28;20298;-75
2023/05/02 03:10:30;;;;;;;;;;;;;;;11.46;39.98;97675.53;6275698;28;19920;-75
2023/05/02 03:13:34;;;;;;;;;;;;;;;11.59;39.87;97673.06;6294259;28;19920;-75
2023/05/02 03:16:38;;;;;;;;;;;;;;;11.89;38.93;97674.00;6294045;28;20374;-75
2023/05/02 03:19:42;;;;;;;;;;;;;;;12.24;37.73;97672.88;6293743;28;19920;-76
2023/05/02 03:22:48;;;;;;;;;;;;;;;12.47;37.59;97669.72;6293078;28;20416;-75
2023/05/02 03:25:51;;;;;;;;;;;;;;;12.85;37.14;97671.84;6276987;28;20408;-74
2023/05/02 03:28:53;;;;;;;;;;;;;;;13.28;36.38;97682.44;6293872;28;19920;-75
2023/05/02 03:31:59;;;;;;;;;;;;;;;13.50;36.03;97686.34;6294254;28;19920;-74
2023/05/02 03:35:01;;;;;;;;;;;;;;;13.65;35.79;97685.38;6294357;28;19920;-75
2023/05/02 03:38:02;;;;;;;;;;;;;;;13.55;35.52;97692.19;6293558;28;19927;-74
2023/05/02 03:41:08;;;;;;;;;;;;;;;13.35;36.07;97688.16;6294202;28;19927;-77
2023/05/02 03:44:13;;;;;;;;;;;;;;;13.40;34.79;97692.22;6297864;28;19924;-74
2023/05/02 03:47:17;;;;;;;;;;;;;;;13.06;35.56;97687.31;6298767;28;20448;-75
2023/05/02 03:50:21;;;;;;;;;;;;;;;12.95;35.70;97688.81;6281127;28;20022;-74
2023/05/02 03:53:30;;;;;;;;;;;;;;;12.90;35.67;97697.97;6298419;28;19920;-74
2023/05/02 03:56:35;;;;;;;;;;;;;;;12.82;35.66;97685.22;6298425;28;19924;-74
2023/05/02 04:00:10;;;;;;;;;;;;;;;12.95;35.49;97695.91;6297635;28;19943;-75
2023/05/02 04:03:27;;;;;;;;;;;;;;;12.97;35.16;97688.75;6297653;28;19920;-74
2023/05/02 04:06:33;;;;;;;;;;;;;;;12.97;35.15;97700.16;6280108;28;19923;-75
2023/05/02 04:09:34;;;;;;;;;;;;;;;12.91;35.17;97687.31;6296950;28;20278;-75
2023/05/02 04:12:36;;;;;;;;;;;;;;;12.99;35.31;97687.69;6297502;28;19942;-75
2023/05/02 04:15:54;;;;;;;;;;;;;;;13.34;34.50;97694.41;6297998;28;19920;-74
2023/05/02 04:18:58;;;;;;;;;;;;;;;13.29;34.58;97691.19;6297178;28;20408;-74
2023/05/02 04:22:02;;;;;;;;;;;;;;;13.42;34.45;97690.34;6297470;28;19927;-75
2023/05/02 04:25:06;;;;;;;;;;;;;;;13.56;34.35;97691.22;6296782;28;20336;-75
2023/05/02 04:28:07;;;;;;;;;;;;;;;13.77;34.09;97692.50;6297116;28;19920;-75
2023/05/02 04:31:09;;;;;;;;;;;;;;;13.80;34.04;97689.66;6297879;28;19920;-76
2023/05/02 04:34:10;;;;;;;;;;;;;;;13.92;34.03;97683.56;6297685;28;20373;-75
2023/05/02 04:37:16;;;;;;;;;;;;;;;14.22;33.82;97689.59;6297512;28;19920;-75
2023/05/02 04:40:20;;;;;;;;;;;;;;;14.58;33.06;97702.19;6296529;28;19927;-74
2023/05/02 04:43:21;;;;;;;;;;;;;;;14.89;32.96;97700.94;6296510;28;19939;-75
2023/05/02 04:46:25;;;;;;;;;;;;;;;16.30;31.57;97698.75;6297503;28;19920;-75
2023/05/02 04:49:31;;;;;;;;;;;;;;;20.52;26.97;97698.31;6297468;28;20058;-75
2023/05/02 04:52:34;;;;;;;;;;;;;;;25.02;22.53;97707.28;6297123;28;19916;-75
2023/05/02 04:55:38;;;;;;;;;;;;;;;28.50;21.87;97716.75;6296370;28;19939;-74
2023/05/02 04:58:44;;;;;;;;;;;;;;;31.24;20.88;97725.28;6297147;28;19920;-73
2023/05/02 05:01:47;;;;;;;;;;;;;;;34.08;19.06;97728.41;6296184;28;20336;-75
2023/05/02 05:04:51;;;;;;;;;;;;;;;36.56;18.02;97731.19;6296853;28;19916;-75
2023/05/02 05:07:55;;;;;;;;;;;;;;;38.71;16.97;97726.13;6297063;28;19946;-75
2023/05/02 05:10:58;;;;;;;;;;;;;;;40.62;16.26;97735.34;6297027;28;19920;-74
2023/05/02 05:14:01;;;;;;;;;;;;;;;42.04;15.48;97735.63;6296701;28;19965;-74
2023/05/02 05:17:05;;;;;;;;;;;;;;;42.39;14.49;97729.97;6296838;28;20406;-75
2023/05/02 05:20:11;;;;;;;;;;;;;;;42.90;14.23;97728.03;6296975;28;19958;-75
2023/05/02 05:23:14;;;;;;;;;;;;;;;43.27;12.28;97722.75;6296931;28;20413;-75
2023/05/02 05:26:17;;;;;;;;;;;;;;;44.54;12.72;97730.78;6295261;28;20022;-74
2023/05/02 05:29:22;;;;;;;;;;;;;;;46.29;10.77;97737.81;6296732;28;19921;-74
2023/05/02 05:32:26;;;;;;;;;;;;;;;47.47;11.24;97733.06;6296418;28;19935;-75
2023/05/02 05:35:30;;;;;;;;;;;;;;;46.39;10.83;97725.63;6296588;28;19959;-76
2023/05/02 05:38:35;;;;;;;;;;;;;;;44.90;10.10;97730.28;6296277;28;19928;-75
2023/05/02 05:41:38;;;;;;;;;;;;;;;41.73;13.53;97710.84;6296365;28;19921;-75
2023/05/02 05:44:47;;;;;;;;;;;;;;;38.81;14.95;97714.38;6296552;28;19920;-75
2023/05/02 05:47:54;;;;;;;;;;;;;;;36.10;16.21;97711.09;6295383;28;19921;-75
2023/05/02 05:50:55;;;;;;;;;;;;;;;34.26;17.27;97703.81;6295359;28;19920;-74
2023/05/02 05:53:58;;;;;;;;;;;;;;;33.19;17.01;97700.56;6294367;28;19920;-75
2023/05/02 05:57:02;;;;;;;;;;;;;;;32.83;16.35;97696.63;6295320;28;19920;-76
2023/05/02 06:00:03;;;;;;;;;;;;;;;32.72;16.82;97700.06;6294784;28;19924;-75
2023/05/02 06:03:07;;;;;;;;;;;;;;;33.18;15.86;97705.19;6295678;28;20346;-77
2023/05/02 06:06:13;;;;;;;;;;;;;;;35.27;14.39;97702.09;6295429;28;19924;-74
2023/05/02 06:09:16;;;;;;;;;;;;;;;36.73;13.17;97708.47;6295534;28;19920;-75
2023/05/02 06:12:22;;;;;;;;;;;;;;;38.54;12.46;97717.16;6295543;28;20393;-76
2023/05/02 06:15:28;;;;;;;;;;;;;;;39.43;11.70;97713.00;6295287;28;19920;-74
2023/05/02 06:18:32;;;;;;;;;;;;;;;40.10;11.72;97712.28;6295416;28;19924;-76
2023/05/02 06:21:35;;;;;;;;;;;;;;;42.49;10.35;97708.88;6294557;28;19920;-75
2023/05/02 06:24:38;;;;;;;;;;;;;;;44.17;9.81;97719.63;6295611;28;20003;-75
2023/05/02 06:27:43;;;;;;;;;;;;;;;43.56;9.22;97718.34;6295281;28;19920;-75
2023/05/02 06:30:55;;;;;;;;;;;;;;;41.97;8.63;97713.00;6294111;28;19920;-74
2023/05/02 06:33:56;;;;;;;;;;;;;;;41.03;9.43;97703.16;6294361;28;19924;-75
2023/05/02 06:37:01;;;;;;;;;;;;;;;38.46;10.52;97706.63;6295284;28;19926;-74
2023/05/02 06:40:05;;;;;;;;;;;;;;;37.14;11.64;97700.94;6294776;28;19927;-75
2023/05/02 06:43:08;;;;;;;;;;;;;;;36.86;10.83;97694.44;6295212;28;19920;-76
2023/05/02 06:46:11;;;;;;;;;;;;;;;35.54;12.22;97685.19;6295304;28;19920;-75
2023/05/02 06:49:14;;;;;;;;;;;;;;;35.38;12.38;97685.91;6294047;28;19924;-74
2023/05/02 06:52:18;;;;;;;;;;;;;;;37.52;11.64;97690.03;6294617;28;19924;-75
2023/05/02 06:55:22;;;;;;;;;;;;;;;38.25;10.74;97691.81;6294997;28;20054;-75
2023/05/02 06:58:23;;;;;;;;;;;;;;;39.38;10.59;97693.69;6277000;28;19920;-75
2023/05/02 07:01:25;;;;;;;;;;;;;;;40.89;9.99;97693.75;6275948;28;20349;-73
2023/05/02 07:04:28;;;;;;;;;;;;;;;43.23;9.22;97699.53;6294828;28;20378;-74
2023/05/02 07:07:29;;;;;;;;;;;;;;;43.50;8.73;97698.97;6293748;28;19920;-74
2023/05/02 07:10:36;;;;;;;;;;;;;;;43.99;8.31;97710.13;6294877;28;19924;-74
2023/05/02 07:13:43;;;;;;;;;;;;;;;44.35;7.64;97705.78;6294729;28;20412;-75
2023/05/02 07:16:46;;;;;;;;;;;;;;;43.22;8.31;97688.72;6277698;28;19966;-76
2023/05/02 07:19:51;;;;;;;;;;;;;;;43.97;7.40;97713.22;6298696;28;19920;-74
2023/05/02 07:22:55;;;;;;;;;;;;;;;40.99;8.57;97688.25;6299823;28;20046;-75
2023/05/02 07:25:56;;;;;;;;;;;;;;;38.54;10.13;97684.97;6298426;28;19920;-74
2023/05/02 07:29:00;;;;;;;;;;;;;;;41.39;8.62;97686.59;6299281;28;20465;-75
2023/05/02 07:32:01;;;;;;;;;;;;;;;43.15;8.04;97691.84;6298878;28;20018;-74
2023/05/02 07:35:02;;;;;;;;;;;;;;;44.45;7.55;97695.66;6298506;28;19921;-76
2023/05/02 07:38:04;;;;;;;;;;;;;;;43.25;8.03;97690.91;6299072;28;19927;-75
2023/05/02 07:41:05;;;;;;;;;;;;;;;41.62;9.02;97689.88;6299068;28;19920;-74
2023/05/02 07:44:06;;;;;;;;;;;;;;;42.06;8.05;97686.41;6297576;28;19920;-75
2023/05/02 07:47:08;;;;;;;;;;;;;;;40.15;9.23;97684.75;6279881;28;19920;-73
2023/05/02 07:50:10;;;;;;;;;;;;;;;40.39;9.12;97681.53;6297819;28;19926;-73
2023/05/02 07:53:14;;;;;;;;;;;;;;;41.01;8.95;97683.25;6298744;28;19931;-74
2023/05/02 07:56:15;;;;;;;;;;;;;;;40.78;8.91;97689.34;6298374;28;19926;-75
2023/05/02 07:59:16;;;;;;;;;;;;;;;40.08;9.30;97677.81;6298022;28;19946;-75
2023/05/02 08:02:19;;;;;;;;;;;;;;;41.22;8.81;97666.69;6297713;28;20301;-74
2023/05/02 08:05:25;;;;;;;;;;;;;;;43.55;7.72;97677.91;6298700;28;20369;-75
2023/05/02 08:08:31;;;;;;;;;;;;;;;43.79;7.70;97673.19;6298373;28;19920;-75
2023/05/02 08:11:32;;;;;;;;;;;;;;;44.37;7.48;97680.53;6297543;28;19974;-74
2023/05/02 08:14:36;;;;;;;;;;;;;;;45.57;6.98;97676.38;6298118;28;19920;-75
2023/05/02 08:17:41;;;;;;;;;;;;;;;45.66;6.92;97678.09;6298132;28;20378;-75
2023/05/02 08:20:45;;;;;;;;;;;;;;;44.54;7.28;97685.56;6298329;28;20022;-75
2023/05/02 08:23:48;;;;;;;;;;;;;;;44.39;7.42;97669.94;6296442;28;19993;-75
2023/05/02 08:26:49;;;;;;;;;;;;;;;45.07;6.85;97671.41;6297834;28;19927;-75
2023/05/02 08:29:54;;;;;;;;;;;;;;;44.55;7.32;97674.13;6296209;28;19924;-75
2023/05/02 08:32:58;;;;;;;;;;;;;;;43.84;7.76;97663.97;6297821;28;20463;-75
2023/05/02 08:36:09;;;;;;;;;;;;;;;43.42;7.56;97668.31;6297913;28;19920;-74
2023/05/02 08:39:15;;;;;;;;;;;;;;;42.53;8.09;97668.50;6297877;28;20378;-75
2023/05/02 08:42:20;;;;;;;;;;;;;;;41.92;8.58;97670.44;6280478;28;19920;-75
2023/05/02 08:45:24;;;;;;;;;;;;;;;42.57;8.53;97675.09;6297759;28;20332;-74
2023/05/02 08:48:28;;;;;;;;;;;;;;;42.66;8.12;97662.28;6297917;28;20026;-74
2023/05/02 08:51:32;;;;;;;;;;;;;;;41.89;8.28;97659.09;6297520;28;19924;-75
2023/05/02 08:54:38;;;;;;;;;;;;;;;42.26;8.47;97653.13;6297451;28;20317;-75
2023/05/02 08:57:44;;;;;;;;;;;;;;;41.82;8.75;97656.66;6297351;28;19920;-74
2023/05/02 09:00:46;;;;;;;;;;;;;;;41.55;8.79;97647.91;6297102;28;20416;-74
2023/05/02 09:03:51;;;;;;;;;;;;;;;42.70;8.50;97657.84;6296561;28;19920;-74
2023/05/02 09:06:54;;;;;;;;;;;;;;;43.18;8.31;97658.03;6296773;28;20441;-75
2023/05/02 09:09:57;;;;;;;;;;;;;;;43.20;7.79;97649.41;6296891;28;20304;-73
2023/05/02 09:13:18;;;;;;;;;;;;;;;42.79;7.92;97650.59;6278038;28;19920;-74
2023/05/02 09:16:24;;;;;;;;;;;;;;;41.52;8.76;97646.53;6270924;28;20366;-75
2023/05/02 09:19:27;;;;;;;;;;;;;;;42.20;8.34;97636.84;6270708;28;19920;-74
2023/05/02 09:22:31;;;;;;;;;;;;;;;42.33;8.16;97636.25;6272166;28;20473;-75
2023/05/02 09:25:37;;;;;;;;;;;;;;;42.11;8.31;97639.41;6270905;28;20018;-73
2023/05/02 09:28:41;;;;;;;;;;;;;;;41.87;8.84;97640.03;6270778;28;20294;-74
2023/05/02 09:31:45;;;;;;;;;;;;;;;42.04;8.74;97638.88;6270865;28;19963;-75
2023/05/02 09:35:05;;;;;;;;;;;;;;;42.61;8.69;97637.44;6271638;28;19920;-76
2023/05/02 09:38:18;;;;;;;;;;;;;;;42.59;8.44;97634.13;6271339;28;19920;-74
2023/05/02 09:41:20;;;;;;;;;;;;;;;41.63;8.76;97627.97;6270744;28;19928;-75
2023/05/02 09:44:26;;;;;;;;;;;;;;;41.29;8.94;97623.06;6271454;28;19921;-75
2023/05/02 09:47:29;;;;;;;;;;;;;;;41.40;8.88;97619.19;6271139;28;19920;-75
2023/05/02 09:50:40;;;;;;;;;;;;;;;40.68;9.25;97612.06;6270610;28;20279;-76
2023/05/02 09:53:44;;;;;;;;;;;;;;;40.64;9.31;97613.75;6270935;28;20429;-75
2023/05/02 09:56:52;;;;;;;;;;;;;;;40.39;9.56;97615.34;6271376;28;19921;-75
2023/05/02 09:59:55;;;;;;;;;;;;;;;40.88;9.18;97617.59;6252766;28;19921;-75
2023/05/02 10:02:57;;;;;;;;;;;;;;;41.06;9.09;97619.81;6270981;28;20340;-74
2023/05/02 10:06:07;;;;;;;;;;;;;;;40.89;9.14;97608.22;6270688;28;19974;-75
2023/05/02 10:09:13;;;;;;;;;;;;;;;40.79;9.33;97613.72;6270787;28;20430;-74
2023/05/02 10:12:17;;;;;;;;;;;;;;;39.64;9.84;97604.63;6270641;28;19928;-75
2023/05/02 10:15:21;;;;;;;;;;;;;;;39.88;9.78;97598.66;6287151;28;19920;-75
2023/05/02 10:18:32;;;;;;;;;;;;;;;39.91;9.72;97606.38;6294912;28;19943;-75
2023/05/02 10:21:35;;;;;;;;;;;;;;;38.91;10.10;97590.69;6295238;28;19928;-74
2023/05/02 10:24:39;;;;;;;;;;;;;;;38.63;10.62;97600.09;6294655;28;20013;-75
2023/05/02 10:27:44;;;;;;;;;;;;;;;37.97;10.76;97590.09;6294926;28;19920;-74
2023/05/02 10:30:48;;;;;;;;;;;;;;;37.45;10.86;97590.53;6294961;28;19927;-75
2023/05/02 10:33:53;;;;;;;;;;;;;;;36.99;11.60;97584.34;6295163;28;19920;-74
2023/05/02 10:37:00;;;;;;;;;;;;;;;37.39;11.35;97588.78;6294943;28;19924;-75
2023/05/02 10:40:05;;;;;;;;;;;;;;;38.30;10.73;97590.94;6294986;28;19924;-76
2023/05/02 10:43:06;;;;;;;;;;;;;;;37.73;10.68;97591.44;6294392;28;19924;-74
2023/05/02 10:46:26;;;;;;;;;;;;;;;36.82;11.24;97583.56;6294718;28;19920;-75
2023/05/02 10:49:32;;;;;;;;;;;;;;;36.40;11.63;97584.75;6294671;28;19921;-74
2023/05/02 10:52:37;;;;;;;;;;;;;;;36.72;11.55;97586.97;6294261;28;20018;-75
2023/05/02 10:55:39;;;;;;;;;;;;;;;36.76;11.97;97581.81;6294135;28;20416;-74
2023/05/02 10:58:41;;;;;;;;;;;;;;;37.03;11.74;97591.06;6294465;28;19921;-76
2023/05/02 11:01:46;;;;;;;;;;;;;;;36.11;12.11;97586.72;6294653;28;20386;-76
2023/05/02 11:04:57;;;;;;;;;;;;;;;35.08;12.42;97582.94;6293847;28;19927;-74
2023/05/02 11:08:14;;;;;;;;;;;;;;;34.89;12.94;97581.38;6293868;28;19924;-74
2023/05/02 11:11:33;;;;;;;;;;;;;;;34.37;13.38;97582.00;6294702;28;19920;-74
2023/05/02 11:14:37;;;;;;;;;;;;;;;34.36;13.41;97570.22;6293719;28;20015;-75
2023/05/02 11:17:57;;;;;;;;;;;;;;;34.61;13.31;97569.22;6294351;28;20398;-76
2023/05/02 11:21:17;;;;;;;;;;;;;;;34.29;13.33;97568.69;6293713;28;20404;-76
2023/05/02 11:24:39;;;;;;;;;;;;;;;34.27;13.62;97566.16;6293155;28;20305;-76
2023/05/02 11:27:42;;;;;;;;;;;;;;;33.52;13.79;97552.94;6279884;28;19920;-76
2023/05/02 11:30:47;;;;;;;;;;;;;;;33.16;14.39;97553.75;6294002;28;19924;-75
2023/05/02 11:33:58;;;;;;;;;;;;;;;32.90;14.55;97565.75;6293971;28;19920;-74
2023/05/02 11:37:09;;;;;;;;;;;;;;;32.81;14.31;97567.91;6294961;28;19920;-75
2023/05/02 11:40:11;;;;;;;;;;;;;;;31.53;15.15;97539.88;6294018;28;20313;-76
2023/05/02 11:43:13;;;;;;;;;;;;;;;31.32;16.01;97548.31;6276028;28;19999;-76
2023/05/02 11:46:19;;;;;;;;;;;;;;;30.87;15.80;97532.78;6294086;28;19920;-76
2023/05/02 11:49:21;;;;;;;;;;;;;;;30.68;16.37;97541.75;6275680;28;20381;-75
2023/05/02 11:52:22;;;;;;;;;;;;;;;31.03;16.17;97555.94;6293522;28;19920;-75
2023/05/02 11:55:28;;;;;;;;;;;;;;;30.37;16.67;97551.38;6294078;28;19920;-76
2023/05/02 11:58:32;;;;;;;;;;;;;;;29.90;16.98;97550.50;6294047;28;19920;-74
2023/05/02 12:01:45;;;;;;;;;;;;;;;29.50;17.33;97539.50;6293925;28;19920;-75
2023/05/02 12:04:46;;;;;;;;;;;;;;;29.70;17.29;97534.16;6294805;28;20355;-75
2023/05/02 12:07:51;;;;;;;;;;;;;;;29.33;17.52;97538.19;6297546;28;19920;-75
2023/05/02 12:10:53;;;;;;;;;;;;;;;29.24;17.87;97536.69;6297313;28;19927;-75
2023/05/02 12:13:55;;;;;;;;;;;;;;;29.35;17.41;97532.56;6297433;28;19920;-75
2023/05/02 12:16:57;;;;;;;;;;;;;;;29.85;17.27;97536.69;6297329;28;20065;-76
2023/05/02 12:20:06;;;;;;;;;;;;;;;30.10;16.98;97541.53;6298293;28;20381;-76
2023/05/02 12:23:08;;;;;;;;;;;;;;;30.02;17.12;97537.16;6279323;28;19927;-76
2023/05/02 12:26:20;;;;;;;;;;;;;;;29.89;17.40;97537.13;6297223;28;19920;-77
2023/05/02 12:29:35;;;;;;;;;;;;;;;29.92;17.17;97543.00;6296652;28;19920;-76
2023/05/02 12:32:37;;;;;;;;;;;;;;;30.12;17.16;97542.16;6297137;28;19920;-75
2023/05/02 12:35:41;;;;;;;;;;;;;;;30.07;16.94;97533.81;6297540;28;19920;-75
2023/05/02 12:38:50;;;;;;;;;;;;;;;29.84;17.14;97548.59;6280140;28;19928;-76
2023/05/02 12:41:53;;;;;;;;;;;;;;;29.65;17.44;97552.09;6296742;28;19920;-75
2023/05/02 12:44:55;;;;;;;;;;;;;;;29.80;17.31;97538.34;6296468;28;19928;-77
2023/05/02 12:47:59;;;;;;;;;;;;;;;29.23;17.71;97543.97;6296707;28;19920;-76
2023/05/02 12:51:03;;;;;;;;;;;;;;;28.85;18.14;97535.41;6297134;28;20333;-77
2023/05/02 12:54:05;;;;;;;;;;;;;;;28.46;18.43;97531.41;6297185;28;19931;-75
2023/05/02 12:57:20;;;;;;;;;;;;;;;28.30;18.79;97531.66;6297176;28;19984;-74
2023/05/02 13:00:24;;;;;;;;;;;;;;;27.91;18.89;97527.56;6297064;28;19924;-75
2023/05/02 13:03:26;;;;;;;;;;;;;;;27.53;19.28;97530.47;6296215;28;20309;-75
2023/05/02 13:06:36;;;;;;;;;;;;;;;27.04;19.93;97523.81;6295838;28;19920;-76
2023/05/02 13:09:38;;;;;;;;;;;;;;;26.68;19.91;97521.03;6296204;28;20321;-75
2023/05/02 13:12:43;;;;;;;;;;;;;;;26.55;19.97;97510.03;6297047;28;19920;-75
2023/05/02 13:15:45;;;;;;;;;;;;;;;26.76;20.54;97512.84;6276873;28;19932;-77
2023/05/02 13:18:48;;;;;;;;;;;;;;;26.13;20.70;97511.44;6296061;28;19921;-75
2023/05/02 13:21:49;;;;;;;;;;;;;;;25.73;21.09;97502.63;6295562;28;19926;-75
2023/05/02 13:24:53;;;;;;;;;;;;;;;26.06;21.10;97510.50;6296452;28;20309;-74
2023/05/02 13:27:57;;;;;;;;;;;;;;;25.77;21.03;97501.25;6295417;28;19936;-74
2023/05/02 13:30:58;;;;;;;;;;;;;;;25.39;21.27;97511.09;6295626;28;19920;-75
2023/05/02 13:34:01;;;;;;;;;;;;;;;25.40;21.44;97510.94;6296101;28;19943;-75
2023/05/02 13:37:04;;;;;;;;;;;;;;;25.27;21.27;97507.97;6295482;28;20046;-73
2023/05/02 13:40:07;;;;;;;;;;;;;;;25.27;21.22;97511.50;6295345;28;20058;-76
2023/05/02 13:43:10;;;;;;;;;;;;;;;25.09;21.69;97500.97;6296502;28;19920;-74
2023/05/02 13:46:13;;;;;;;;;;;;;;;24.91;21.66;97499.53;6277530;28;19943;-76
2023/05/02 13:49:17;;;;;;;;;;;;;;;25.21;21.64;97505.97;6295045;28;19927;-76
2023/05/02 13:52:23;;;;;;;;;;;;;;;24.86;21.53;97508.13;6278198;28;19920;-74
2023/05/02 13:55:24;;;;;;;;;;;;;;;24.85;21.50;97501.06;6295244;28;20417;-76
2023/05/02 13:58:25;;;;;;;;;;;;;;;24.84;21.64;97504.78;6295182;28;20332;-76
2023/05/02 14:01:30;;;;;;;;;;;;;;;24.63;22.19;97516.94;6295976;28;20011;-75
2023/05/02 14:04:33;;;;;;;;;;;;;;;24.26;22.17;97522.00;6278544;28;19920;-74
2023/05/02 14:07:34;;;;;;;;;;;;;;;24.38;22.19;97523.38;6294821;28;20325;-75
2023/05/02 14:10:40;;;;;;;;;;;;;;;24.24;22.07;97524.06;6295322;28;19920;-76
2023/05/02 14:13:42;;;;;;;;;;;;;;;23.97;22.62;97528.75;6294386;28;19958;-77
2023/05/02 14:16:43;;;;;;;;;;;;;;;23.81;22.85;97528.75;6294377;28;20271;-75
2023/05/02 14:19:51;;;;;;;;;;;;;;;23.60;22.89;97524.66;6295166;28;19916;-75
2023/05/02 14:22:52;;;;;;;;;;;;;;;23.50;23.16;97529.38;6294437;28;19942;-75
2023/05/02 14:25:55;;;;;;;;;;;;;;;23.09;23.46;97508.59;6293481;28;20023;-75
2023/05/02 14:28:57;;;;;;;;;;;;;;;23.04;23.45;97534.25;6294167;28;20022;-74
2023/05/02 14:31:58;;;;;;;;;;;;;;;22.85;23.66;97533.47;6294329;28;20409;-75
2023/05/02 14:35:01;;;;;;;;;;;;;;;22.76;23.77;97537.13;6294782;28;19920;-76
2023/05/02 14:38:03;;;;;;;;;;;;;;;22.74;23.80;97533.75;6294391;28;19924;-74
2023/05/02 14:41:06;;;;;;;;;;;;;;;22.70;23.92;97532.38;6293666;28;19921;-76
2023/05/02 14:44:11;;;;;;;;;;;;;;;22.43;23.88;97538.75;6294563;28;20798;-76
2023/05/02 14:47:17;;;;;;;;;;;;;;;22.28;24.16;97535.81;6293843;28;20130;-76
2023/05/02 14:50:21;;;;;;;;;;;;;;;22.42;24.07;97532.56;6294558;28;20013;-76
2023/05/02 14:53:25;;;;;;;;;;;;;;;22.30;24.36;97546.38;6293772;28;19920;-75
2023/05/02 14:56:28;;;;;;;;;;;;;;;21.95;24.53;97545.41;6294018;28;19920;-75
2023/05/02 14:59:34;;;;;;;;;;;;;;;22.06;24.74;97544.34;6294667;28;20017;-74
2023/05/02 15:02:37;;;;;;;;;;;;;;;21.75;24.93;97555.44;6275889;28;19920;-75
2023/05/02 15:05:39;;;;;;;;;;;;;;;21.58;25.02;97558.97;6293650;28;19920;-75
2023/05/02 15:08:40;;;;;;;;;;;;;;;21.22;25.10;97564.22;6293554;28;20014;-75
2023/05/02 15:11:43;;;;;;;;;;;;;;;21.11;25.26;97561.75;6292642;28;20351;-76
2023/05/02 15:14:47;;;;;;;;;;;;;;;21.07;25.38;97562.03;6293754;28;20305;-74
2023/05/02 15:17:51;;;;;;;;;;;;;;;20.68;25.67;97560.50;6294663;28;19920;-74
2023/05/02 15:20:52;;;;;;;;;;;;;;;20.66;25.86;97573.19;6293283;28;19920;-75
2023/05/02 15:24:02;;;;;;;;;;;;;;;20.68;25.82;97569.38;6294650;28;19920;-75
2023/05/02 15:27:08;;;;;;;;;;;;;;;20.48;26.13;97571.22;6294505;28;19920;-76
2023/05/02 15:30:14;;;;;;;;;;;;;;;20.43;26.25;97586.84;6293485;28;19932;-75
2023/05/02 15:33:21;;;;;;;;;;;;;;;20.15;26.36;97580.56;6294532;28;20015;-76
2023/05/02 15:36:28;;;;;;;;;;;;;;;20.34;26.19;97595.75;6294475;28;19920;-75
2023/05/02 15:39:31;;;;;;;;;;;;;;;20.02;26.36;97590.72;6295839;28;19920;-76
2023/05/02 15:42:34;;;;;;;;;;;;;;;19.78;26.40;97599.13;6298652;28;20011;-75
2023/05/02 15:45:38;;;;;;;;;;;;;;;19.63;26.70;97607.50;6281662;28;19920;-77
2023/05/02 15:48:40;;;;;;;;;;;;;;;19.49;26.80;97606.06;6298022;28;19931;-75
2023/05/02 15:51:45;;;;;;;;;;;;;;;19.34;27.15;97612.78;6298488;28;20323;-77
2023/05/02 15:54:50;;;;;;;;;;;;;;;19.24;27.09;97628.75;6298520;28;19921;-76
2023/05/02 15:57:54;;;;;;;;;;;;;;;19.07;27.25;97632.06;6298597;28;19947;-75
2023/05/02 16:00:55;;;;;;;;;;;;;;;18.93;27.46;97633.25;6297459;28;19920;-75
2023/05/02 16:04:01;;;;;;;;;;;;;;;18.84;27.66;97637.56;6298908;28;19924;-74
2023/05/02 16:07:05;;;;;;;;;;;;;;;18.59;27.56;97643.28;6280191;28;19924;-74